createdAt,value
2017-11-15T00:00:00.026Z,26.65
2017-11-15T00:00:05.056Z,26.77
2017-11-15T00:00:09.083Z,26.67
2017-11-15T00:00:13.416Z,26.55
2017-11-15T00:00:17.719Z,26.43
2017-11-15T00:00:21.979Z,26.30
2017-11-15T00:00:26.259Z,26.30
2017-11-15T00:00:30.561Z,26.47
2017-11-15T00:00:34.839Z,26.35
2017-11-15T00:00:39.878Z,26.30
2017-11-15T00:00:44.142Z,26.30
2017-11-15T00:00:48.476Z,26.17
2017-11-15T00:00:52.721Z,26.00
2017-11-15T00:00:57.006Z,25.75
2017-11-15T00:01:01.275Z,25.75
2017-11-15T00:01:05.586Z,25.60
2017-11-15T00:01:09.855Z,25.60
2017-11-15T00:01:14.156Z,26.25
2017-11-15T00:01:18.425Z,26.50
2017-11-15T00:01:22.725Z,26.65
2017-11-15T00:01:27.023Z,26.90
2017-11-15T00:01:31.267Z,26.83
2017-11-15T00:01:36.299Z,27.20
2017-11-15T00:01:40.562Z,27.50
2017-11-15T00:01:44.831Z,27.40
2017-11-15T00:01:49.119Z,27.37
2017-11-15T00:01:53.381Z,27.30
2017-11-15T00:01:58.418Z,27.20
2017-11-15T00:02:02.723Z,27.00
2017-11-15T00:02:07.726Z,27.10
2017-11-15T00:02:12.748Z,26.83
2017-11-15T00:02:17.021Z,26.60
2017-11-15T00:02:21.282Z,26.60
2017-11-15T00:02:25.536Z,26.55
2017-11-15T00:02:30.001Z,27.00
2017-11-15T00:02:35.173Z,27.10
2017-11-15T00:02:39.473Z,26.60
2017-11-15T00:02:43.963Z,26.60
2017-11-15T00:02:49.217Z,26.83
2017-11-15T00:02:53.540Z,27.00
2017-11-15T00:02:57.805Z,27.10
2017-11-15T00:03:02.079Z,27.10
2017-11-15T00:03:06.328Z,26.95
2017-11-15T00:03:10.581Z,26.90
2017-11-15T00:03:14.850Z,26.90
2017-11-15T00:03:19.109Z,26.85
2017-11-15T00:03:24.131Z,26.85
2017-11-15T00:03:28.404Z,26.63
2017-11-15T00:03:32.656Z,26.50
2017-11-15T00:03:36.971Z,26.45
2017-11-15T00:03:41.231Z,26.75
2017-11-15T00:03:45.540Z,26.60
2017-11-15T00:03:50.564Z,26.70
2017-11-15T00:03:55.629Z,26.83
2017-11-15T00:03:59.857Z,26.73
2017-11-15T00:04:04.146Z,26.80
2017-11-15T00:04:08.417Z,26.80
2017-11-15T00:04:12.691Z,26.80
2017-11-15T00:04:16.970Z,27.00
2017-11-15T00:04:21.977Z,27.10
2017-11-15T00:04:26.299Z,27.20
2017-11-15T00:04:30.627Z,27.23
2017-11-15T00:04:34.857Z,27.50
2017-11-15T00:04:39.127Z,27.35
2017-11-15T00:04:43.404Z,27.10
2017-11-15T00:04:48.439Z,27.00
2017-11-15T00:04:52.722Z,26.77
2017-11-15T00:04:57.735Z,26.80
2017-11-15T00:05:02.017Z,26.57
2017-11-15T00:05:06.273Z,26.47
2017-11-15T00:05:10.546Z,26.30
2017-11-15T00:05:15.575Z,26.30
2017-11-15T00:05:20.584Z,26.03
2017-11-15T00:05:25.617Z,25.97
2017-11-15T00:05:29.916Z,25.67
2017-11-15T00:05:34.183Z,25.60
2017-11-15T00:05:38.439Z,26.05
2017-11-15T00:05:42.692Z,26.25
2017-11-15T00:05:47.696Z,26.30
2017-11-15T00:05:51.957Z,26.30
2017-11-15T00:05:56.222Z,26.40
2017-11-15T00:06:01.233Z,26.60
2017-11-15T00:06:06.272Z,26.70
2017-11-15T00:06:11.280Z,27.00
2017-11-15T00:06:15.536Z,27.30
2017-11-15T00:06:19.835Z,27.30
2017-11-15T00:06:24.104Z,27.35
2017-11-15T00:06:28.375Z,27.55
2017-11-15T00:06:33.380Z,27.45
2017-11-15T00:06:38.428Z,27.30
2017-11-15T00:06:42.683Z,27.17
2017-11-15T00:06:46.943Z,27.10
2017-11-15T00:06:51.193Z,27.10
2017-11-15T00:06:56.237Z,27.00
2017-11-15T00:07:01.260Z,26.90
2017-11-15T00:07:05.519Z,26.90
2017-11-15T00:07:09.783Z,26.55
2017-11-15T00:07:14.033Z,26.15
2017-11-15T00:07:19.062Z,26.15
2017-11-15T00:07:24.086Z,26.07
2017-11-15T00:07:28.338Z,25.67
2017-11-15T00:07:32.592Z,25.47
2017-11-15T00:07:36.847Z,25.05
2017-11-15T00:07:41.110Z,24.95
2017-11-15T00:07:45.354Z,25.20
2017-11-15T00:07:49.619Z,25.40
2017-11-15T00:07:53.891Z,25.20
2017-11-15T00:07:58.885Z,25.20
2017-11-15T00:08:03.908Z,25.17
2017-11-15T00:08:08.942Z,25.40
2017-11-15T00:08:13.205Z,25.40
2017-11-15T00:08:17.452Z,25.35
2017-11-15T00:08:21.728Z,25.25
2017-11-15T00:08:25.994Z,25.20
2017-11-15T00:08:30.244Z,25.30
2017-11-15T00:08:35.289Z,25.30
2017-11-15T00:08:39.548Z,25.23
2017-11-15T00:08:43.802Z,25.15
2017-11-15T00:08:48.056Z,24.60
2017-11-15T00:08:53.087Z,24.75
2017-11-15T00:08:58.132Z,24.97
2017-11-15T00:09:02.373Z,25.03
2017-11-15T00:09:06.630Z,24.85
2017-11-15T00:09:10.884Z,25.23
2017-11-15T00:09:15.131Z,25.10
2017-11-15T00:09:19.396Z,25.10
2017-11-15T00:09:23.728Z,25.05
2017-11-15T00:09:27.994Z,25.40
2017-11-15T00:09:33.004Z,25.60
2017-11-15T00:09:38.038Z,25.77
2017-11-15T00:09:43.068Z,25.93
2017-11-15T00:09:47.329Z,26.27
2017-11-15T00:09:51.587Z,26.45
2017-11-15T00:09:55.859Z,26.50
2017-11-15T00:10:00.901Z,26.75
2017-11-15T00:10:05.173Z,26.60
2017-11-15T00:10:10.200Z,26.35
2017-11-15T00:10:15.218Z,26.50
2017-11-15T00:10:19.485Z,26.80
2017-11-15T00:10:23.771Z,26.90
2017-11-15T00:10:28.040Z,26.95
2017-11-15T00:10:32.296Z,26.95
2017-11-15T00:10:36.561Z,27.20
2017-11-15T00:10:40.823Z,27.10
2017-11-15T00:10:45.080Z,27.10
2017-11-15T00:10:49.339Z,27.10
2017-11-15T00:10:53.608Z,26.97
2017-11-15T00:10:58.635Z,26.65
2017-11-15T00:11:03.636Z,26.87
2017-11-15T00:11:08.677Z,27.20
2017-11-15T00:11:13.716Z,27.33
2017-11-15T00:11:17.965Z,27.43
2017-11-15T00:11:22.220Z,27.77
2017-11-15T00:11:26.539Z,27.90
2017-11-15T00:11:31.602Z,27.75
2017-11-15T00:11:36.630Z,27.50
2017-11-15T00:11:41.659Z,27.43
2017-11-15T00:11:45.900Z,27.40
2017-11-15T00:11:50.152Z,27.50
2017-11-15T00:11:54.400Z,27.55
2017-11-15T00:11:58.650Z,27.55
2017-11-15T00:12:02.916Z,27.40
2017-11-15T00:12:07.165Z,27.40
2017-11-15T00:12:11.425Z,27.35
2017-11-15T00:12:15.694Z,27.40
2017-11-15T00:12:19.948Z,27.10
2017-11-15T00:12:24.972Z,26.65
2017-11-15T00:12:30.178Z,26.70
2017-11-15T00:12:34.411Z,26.90
2017-11-15T00:12:38.674Z,26.75
2017-11-15T00:12:42.928Z,26.80
2017-11-15T00:12:47.197Z,27.00
2017-11-15T00:12:52.223Z,27.45
2017-11-15T00:12:56.479Z,27.50
2017-11-15T00:13:00.736Z,27.53
2017-11-15T00:13:04.972Z,27.50
2017-11-15T00:13:09.226Z,27.60
2017-11-15T00:13:13.514Z,27.45
2017-11-15T00:13:17.797Z,27.50
2017-11-15T00:13:22.837Z,27.80
2017-11-15T00:13:27.103Z,27.70
2017-11-15T00:13:31.367Z,27.80
2017-11-15T00:13:35.637Z,28.03
2017-11-15T00:13:39.932Z,28.40
2017-11-15T00:13:44.942Z,28.40
2017-11-15T00:13:49.197Z,28.03
2017-11-15T00:13:53.458Z,28.27
2017-11-15T00:13:57.724Z,28.70
2017-11-15T00:14:01.988Z,28.85
2017-11-15T00:14:06.269Z,29.25
2017-11-15T00:14:10.522Z,29.27
2017-11-15T00:14:14.780Z,29.20
2017-11-15T00:14:19.038Z,29.10
2017-11-15T00:14:23.291Z,29.30
2017-11-15T00:14:27.573Z,29.23
2017-11-15T00:14:31.801Z,28.65
2017-11-15T00:14:36.053Z,28.50
2017-11-15T00:14:40.316Z,28.13
2017-11-15T00:14:44.560Z,27.85
2017-11-15T00:14:48.818Z,27.85
2017-11-15T00:14:53.075Z,27.45
2017-11-15T00:14:57.329Z,27.13
2017-11-15T00:15:01.616Z,27.20
2017-11-15T00:15:05.864Z,26.65
2017-11-15T00:15:10.111Z,26.87
2017-11-15T00:15:14.373Z,27.00
2017-11-15T00:15:18.642Z,27.00
2017-11-15T00:15:22.909Z,27.00
2017-11-15T00:15:27.164Z,27.07
2017-11-15T00:15:31.419Z,27.65
2017-11-15T00:15:35.684Z,28.15
2017-11-15T00:15:39.935Z,28.33
2017-11-15T00:15:44.958Z,28.55
2017-11-15T00:15:49.985Z,28.93
2017-11-15T00:15:55.029Z,29.00
2017-11-15T00:15:59.268Z,28.80
2017-11-15T00:16:03.532Z,28.85
2017-11-15T00:16:07.830Z,28.83
2017-11-15T00:16:12.093Z,29.00
2017-11-15T00:16:17.122Z,29.00
2017-11-15T00:16:22.140Z,29.17
2017-11-15T00:16:27.183Z,29.33
2017-11-15T00:16:31.436Z,29.20
2017-11-15T00:16:35.695Z,28.97
2017-11-15T00:16:39.981Z,28.65
2017-11-15T00:16:44.243Z,28.40
2017-11-15T00:16:48.498Z,27.90
2017-11-15T00:16:52.752Z,27.90
2017-11-15T00:16:57.794Z,27.70
2017-11-15T00:17:02.822Z,27.63
2017-11-15T00:17:07.103Z,27.47
2017-11-15T00:17:12.121Z,27.35
2017-11-15T00:17:17.126Z,27.20
2017-11-15T00:17:22.172Z,26.90
2017-11-15T00:17:26.454Z,26.80
2017-11-15T00:17:31.482Z,26.70
2017-11-15T00:17:35.763Z,26.60
2017-11-15T00:17:40.030Z,26.90
2017-11-15T00:17:44.344Z,27.05
2017-11-15T00:17:48.582Z,27.20
2017-11-15T00:17:53.630Z,27.00
2017-11-15T00:17:57.880Z,27.30
2017-11-15T00:18:02.128Z,27.50
2017-11-15T00:18:06.388Z,27.53
2017-11-15T00:18:11.429Z,27.50
2017-11-15T00:18:15.702Z,27.60
2017-11-15T00:18:20.740Z,27.80
2017-11-15T00:18:25.756Z,27.97
2017-11-15T00:18:30.768Z,28.17
2017-11-15T00:18:35.805Z,28.60
2017-11-15T00:18:40.077Z,28.53
2017-11-15T00:18:44.327Z,28.60
2017-11-15T00:18:48.598Z,28.55
2017-11-15T00:18:53.637Z,28.35
2017-11-15T00:18:57.882Z,28.10
2017-11-15T00:19:02.164Z,27.80
2017-11-15T00:19:06.423Z,27.85
2017-11-15T00:19:10.679Z,27.80
2017-11-15T00:19:14.958Z,27.73
2017-11-15T00:19:19.223Z,27.55
2017-11-15T00:19:24.321Z,27.55
2017-11-15T00:19:29.353Z,27.53
2017-11-15T00:19:34.371Z,27.40
2017-11-15T00:19:39.395Z,27.50
2017-11-15T00:19:43.641Z,27.50
2017-11-15T00:19:47.913Z,27.80
2017-11-15T00:19:52.180Z,28.25
2017-11-15T00:19:57.578Z,28.30
2017-11-15T00:20:02.653Z,28.23
2017-11-15T00:20:09.280Z,28.27
2017-11-15T00:20:14.895Z,28.46
2017-11-15T00:20:19.897Z,28.67
2017-11-15T00:20:25.253Z,28.30
2017-11-15T00:20:30.287Z,27.92
2017-11-15T00:20:35.295Z,27.70
2017-11-15T00:20:40.308Z,27.60
2017-11-15T00:20:45.347Z,27.30
2017-11-15T00:20:49.599Z,26.93
2017-11-15T00:20:53.885Z,26.65
2017-11-15T00:20:58.127Z,26.75
2017-11-15T00:21:02.381Z,26.87
2017-11-15T00:21:06.627Z,26.60
2017-11-15T00:21:11.657Z,26.25
2017-11-15T00:21:16.758Z,26.03
2017-11-15T00:21:21.005Z,25.87
2017-11-15T00:21:25.284Z,25.93
2017-11-15T00:21:30.340Z,25.65
2017-11-15T00:21:34.604Z,25.40
2017-11-15T00:21:39.607Z,25.35
2017-11-15T00:21:44.620Z,25.80
2017-11-15T00:21:48.878Z,26.00
2017-11-15T00:21:53.155Z,26.13
2017-11-15T00:21:57.406Z,26.20
2017-11-15T00:22:01.672Z,26.25
2017-11-15T00:22:05.954Z,26.40
2017-11-15T00:22:10.218Z,26.67
2017-11-15T00:22:47.151Z,27.90
2017-11-15T00:22:51.405Z,27.05
2017-11-15T00:22:56.417Z,28.30
2017-11-15T00:23:01.440Z,27.80
2017-11-15T00:23:06.457Z,26.90
2017-11-15T00:23:11.494Z,28.27
2017-11-15T00:23:15.732Z,28.90
2017-11-15T00:23:19.998Z,28.63
2017-11-15T00:23:25.209Z,28.70
2017-11-15T00:23:29.475Z,28.40
2017-11-15T00:23:33.739Z,28.40
2017-11-15T00:23:37.988Z,28.30
2017-11-15T00:23:43.034Z,28.05
2017-11-15T00:23:47.288Z,27.87
2017-11-15T00:23:51.552Z,27.70
2017-11-15T00:23:55.813Z,27.70
2017-11-15T00:24:00.958Z,27.85
2017-11-15T00:24:05.201Z,28.33
2017-11-15T00:24:09.460Z,28.25
2017-11-15T00:24:13.704Z,28.17
2017-11-15T00:24:17.973Z,28.55
2017-11-15T00:24:22.227Z,28.45
2017-11-15T00:24:26.492Z,28.30
2017-11-15T00:24:30.753Z,28.20
2017-11-15T00:24:35.764Z,28.30
2017-11-15T00:24:40.014Z,28.63
2017-11-15T00:24:44.270Z,29.30
2017-11-15T00:24:48.534Z,29.40
2017-11-15T00:24:52.776Z,29.35
2017-11-15T00:24:57.046Z,29.20
2017-11-15T00:25:02.080Z,29.10
2017-11-15T00:25:07.089Z,28.80
2017-11-15T00:25:12.149Z,28.53
2017-11-15T00:25:16.437Z,28.60
2017-11-15T00:25:20.700Z,28.20
2017-11-15T00:25:24.953Z,28.30
2017-11-15T00:25:29.209Z,28.40
2017-11-15T00:25:34.244Z,28.20
2017-11-15T00:25:39.252Z,27.87
2017-11-15T00:25:44.357Z,27.20
2017-11-15T00:25:48.616Z,27.03
2017-11-15T00:25:52.874Z,27.15
2017-11-15T00:25:57.984Z,27.35
2017-11-15T00:26:02.247Z,27.20
2017-11-15T00:26:06.542Z,26.95
2017-11-15T00:26:10.772Z,26.85
2017-11-15T00:26:15.037Z,26.50
2017-11-15T00:26:19.297Z,26.40
2017-11-15T00:26:24.322Z,26.60
2017-11-15T00:26:28.583Z,26.87
2017-11-15T00:26:32.867Z,27.00
2017-11-15T00:26:37.876Z,26.93
2017-11-15T00:26:42.145Z,26.87
2017-11-15T00:26:46.473Z,27.10
2017-11-15T00:26:50.932Z,27.37
2017-11-15T00:26:55.949Z,27.30
2017-11-15T00:27:00.198Z,27.43
2017-11-15T00:27:04.451Z,27.50
2017-11-15T00:27:08.693Z,27.50
2017-11-15T00:27:12.957Z,27.53
2017-11-15T00:27:17.994Z,27.80
2017-11-15T00:27:22.246Z,27.97
2017-11-15T00:27:26.516Z,27.85
2017-11-15T00:27:30.773Z,27.80
2017-11-15T00:27:35.814Z,27.80
2017-11-15T00:27:40.070Z,28.17
2017-11-15T00:27:44.349Z,28.25
2017-11-15T00:27:48.614Z,28.05
2017-11-15T00:27:52.888Z,27.80
2017-11-15T00:27:57.167Z,27.80
2017-11-15T00:28:01.427Z,27.95
2017-11-15T00:28:05.684Z,28.20
2017-11-15T00:28:09.935Z,28.30
2017-11-15T00:28:14.204Z,28.30
2017-11-15T00:28:19.227Z,28.30
2017-11-15T00:28:24.229Z,27.98
2017-11-15T00:28:29.238Z,28.07
2017-11-15T00:28:33.547Z,28.27
2017-11-15T00:28:37.798Z,28.15
2017-11-15T00:28:42.079Z,28.00
2017-11-15T00:28:46.321Z,28.20
2017-11-15T00:28:50.593Z,28.40
2017-11-15T00:28:54.861Z,28.40
2017-11-15T00:28:59.861Z,28.30
2017-11-15T00:29:04.108Z,28.03
2017-11-15T00:29:08.389Z,28.00
2017-11-15T00:29:13.420Z,28.00
2017-11-15T00:29:17.664Z,27.80
2017-11-15T00:29:21.916Z,27.90
2017-11-15T00:29:26.170Z,27.70
2017-11-15T00:29:30.446Z,27.80
2017-11-15T00:29:34.704Z,27.90
2017-11-15T00:29:38.998Z,28.25
2017-11-15T00:29:44.113Z,28.07
2017-11-15T00:29:48.366Z,27.63
2017-11-15T00:29:52.626Z,27.70
2017-11-15T00:29:56.876Z,27.80
2017-11-15T00:30:01.147Z,27.83
2017-11-15T00:30:05.398Z,27.90
2017-11-15T00:30:09.792Z,27.80
2017-11-15T00:30:14.087Z,27.93
2017-11-15T00:30:18.335Z,28.40
2017-11-15T00:30:22.592Z,28.60
2017-11-15T00:30:26.841Z,28.80
2017-11-15T00:30:31.097Z,28.63
2017-11-15T00:30:35.359Z,28.50
2017-11-15T00:30:39.645Z,28.20
2017-11-15T00:30:44.667Z,28.50
2017-11-15T00:30:48.946Z,28.70
2017-11-15T00:30:53.989Z,28.60
2017-11-15T00:30:58.240Z,28.53
2017-11-15T00:31:02.507Z,28.70
2017-11-15T00:31:06.778Z,28.57
2017-11-15T00:31:11.040Z,28.50
2017-11-15T00:31:15.293Z,28.25
2017-11-15T00:31:19.554Z,27.95
2017-11-15T00:31:24.596Z,27.77
2017-11-15T00:31:28.867Z,27.60
2017-11-15T00:31:33.143Z,27.50
2017-11-15T00:31:37.406Z,27.45
2017-11-15T00:31:41.661Z,27.37
2017-11-15T00:31:45.973Z,27.05
2017-11-15T00:31:50.995Z,27.00
2017-11-15T00:32:02.361Z,26.83
2017-11-15T00:32:28.624Z,26.50
2017-11-15T00:32:32.988Z,26.60
2017-11-15T00:32:38.012Z,27.03
2017-11-15T00:32:43.012Z,27.03
2017-11-15T00:32:48.048Z,26.97
2017-11-15T00:32:53.061Z,26.87
2017-11-15T00:32:58.103Z,26.70
2017-11-15T00:33:02.361Z,26.73
2017-11-15T00:33:06.617Z,26.80
2017-11-15T00:33:10.874Z,26.80
2017-11-15T00:33:15.880Z,26.87
2017-11-15T00:33:20.144Z,27.10
2017-11-15T00:33:24.397Z,27.00
2017-11-15T00:33:29.426Z,26.85
2017-11-15T00:33:34.470Z,26.70
2017-11-15T00:33:38.708Z,26.47
2017-11-15T00:33:42.961Z,26.23
2017-11-15T00:33:47.238Z,26.35
2017-11-15T00:33:52.268Z,26.55
2017-11-15T00:33:56.523Z,26.77
2017-11-15T00:34:00.765Z,26.80
2017-11-15T00:34:05.053Z,26.83
2017-11-15T00:34:09.303Z,27.05
2017-11-15T00:34:13.549Z,27.40
2017-11-15T00:34:18.571Z,27.37
2017-11-15T00:34:23.608Z,26.97
2017-11-15T00:34:27.875Z,26.90
2017-11-15T00:34:32.120Z,26.95
2017-11-15T00:34:36.396Z,26.75
2017-11-15T00:34:41.638Z,27.07
2017-11-15T00:34:45.910Z,27.33
2017-11-15T00:34:50.947Z,27.45
2017-11-15T00:34:55.974Z,27.53
2017-11-15T00:35:00.232Z,27.97
2017-11-15T00:35:04.541Z,28.25
2017-11-15T00:35:08.832Z,28.30
2017-11-15T00:35:13.116Z,28.45
2017-11-15T00:35:17.399Z,28.85
2017-11-15T00:35:21.672Z,29.17
2017-11-15T00:35:25.939Z,29.20
2017-11-15T00:35:30.197Z,29.15
2017-11-15T00:35:34.494Z,29.00
2017-11-15T00:35:38.761Z,28.90
2017-11-15T00:35:43.819Z,28.90
2017-11-15T00:35:48.093Z,28.90
2017-11-15T00:35:52.381Z,28.53
2017-11-15T00:35:57.399Z,28.20
2017-11-15T00:36:02.435Z,27.53
2017-11-15T00:36:06.694Z,27.20
2017-11-15T00:36:10.978Z,27.50
2017-11-15T00:36:15.228Z,27.10
2017-11-15T00:36:20.239Z,26.70
2017-11-15T00:36:25.257Z,26.70
2017-11-15T01:56:04.864Z,33.31
2017-11-15T01:56:09.139Z,33.30
2017-11-15T01:56:14.181Z,33.80
2017-11-15T01:56:18.461Z,34.23
2017-11-15T01:56:22.722Z,34.80
2017-11-15T01:56:26.969Z,34.90
2017-11-15T01:56:31.237Z,34.70
2017-11-15T01:56:35.492Z,34.60
2017-11-15T01:56:39.740Z,34.50
2017-11-15T01:56:44.778Z,34.85
2017-11-15T01:56:49.799Z,35.27
2017-11-15T01:56:54.063Z,35.13
2017-11-15T01:56:58.323Z,34.70
2017-11-15T01:57:02.583Z,34.70
2017-11-15T01:57:07.606Z,34.70
2017-11-15T01:57:12.628Z,34.57
2017-11-15T01:57:17.662Z,34.03
2017-11-15T01:57:21.973Z,33.78
2017-11-15T01:57:26.221Z,33.85
2017-11-15T01:57:30.476Z,34.00
2017-11-15T01:57:34.762Z,34.25
2017-11-15T01:57:39.035Z,34.27
2017-11-15T01:57:43.285Z,34.05
2017-11-15T01:57:47.533Z,33.70
2017-11-15T01:57:52.579Z,33.80
2017-11-15T01:57:56.838Z,33.80
2017-11-15T01:58:01.093Z,33.80
2017-11-15T01:58:05.355Z,33.90
2017-11-15T01:58:10.392Z,33.65
2017-11-15T01:58:14.650Z,33.50
2017-11-15T01:58:18.925Z,33.70
2017-11-15T01:58:23.160Z,33.50
2017-11-15T01:58:27.408Z,33.35
2017-11-15T01:58:31.679Z,33.57
2017-11-15T01:58:36.709Z,33.65
2017-11-15T01:58:41.731Z,33.87
2017-11-15T01:58:45.972Z,33.80
2017-11-15T01:58:50.239Z,33.90
2017-11-15T01:58:54.480Z,34.00
2017-11-15T01:58:58.758Z,34.20
2017-11-15T01:59:03.001Z,33.85
2017-11-15T01:59:07.267Z,33.85
2017-11-15T01:59:11.520Z,33.93
2017-11-15T01:59:16.558Z,33.30
2017-11-15T01:59:20.817Z,33.10
2017-11-15T01:59:25.062Z,33.30
2017-11-15T01:59:29.350Z,33.17
2017-11-15T01:59:34.369Z,32.90
2017-11-15T01:59:38.628Z,32.50
2017-11-15T01:59:42.889Z,32.30
2017-11-15T01:59:47.142Z,32.30
2017-11-15T01:59:51.438Z,32.40
2017-11-15T01:59:56.449Z,32.75
2017-11-15T02:00:00.703Z,33.00
2017-11-15T02:00:04.968Z,33.30
2017-11-15T02:00:10.003Z,33.70
2017-11-15T02:00:20.470Z,34.47
2017-11-15T02:00:36.806Z,35.20
2017-11-15T02:00:52.869Z,35.15
2017-11-15T02:01:08.898Z,33.70
2017-11-15T02:01:14.157Z,32.80
2017-11-15T02:01:18.408Z,32.80
2017-11-15T02:01:23.442Z,33.05
2017-11-15T02:01:27.700Z,32.90
2017-11-15T02:01:37.820Z,33.15
2017-11-15T02:01:42.107Z,33.36
2017-11-15T02:01:46.364Z,33.45
2017-11-15T02:01:50.646Z,33.23
2017-11-15T02:01:54.893Z,33.45
2017-11-15T02:01:59.150Z,33.45
2017-11-15T02:02:03.435Z,33.55
2017-11-15T02:02:07.689Z,33.70
2017-11-15T02:02:11.933Z,34.15
2017-11-15T02:02:16.192Z,34.30
2017-11-15T02:02:20.450Z,33.87
2017-11-15T02:02:24.716Z,34.05
2017-11-15T02:02:28.977Z,34.50
2017-11-15T02:02:33.259Z,34.80
2017-11-15T02:02:37.514Z,34.53
2017-11-15T02:02:41.764Z,34.90
2017-11-15T02:02:46.787Z,35.10
2017-11-15T02:02:51.818Z,35.40
2017-11-15T02:02:56.079Z,35.23
2017-11-15T02:03:00.333Z,35.37
2017-11-15T02:03:04.584Z,35.30
2017-11-15T02:03:08.836Z,35.30
2017-11-15T02:03:13.103Z,35.05
2017-11-15T02:03:18.119Z,34.80
2017-11-15T02:03:23.126Z,34.50
2017-11-15T02:03:27.381Z,34.57
2017-11-15T02:03:31.632Z,34.85
2017-11-15T02:03:36.655Z,34.95
2017-11-15T02:03:40.905Z,34.97
2017-11-15T02:03:45.174Z,34.90
2017-11-15T02:03:49.428Z,35.30
2017-11-15T02:03:53.697Z,35.80
2017-11-15T02:03:57.962Z,35.70
2017-11-15T02:04:03.004Z,35.70
2017-11-15T02:04:07.265Z,35.77
2017-11-15T02:04:11.528Z,35.70
2017-11-15T02:04:15.777Z,35.50
2017-11-15T02:04:20.804Z,35.40
2017-11-15T02:04:25.839Z,35.20
2017-11-15T02:04:30.851Z,34.67
2017-11-15T02:04:35.894Z,34.53
2017-11-15T02:04:40.140Z,34.77
2017-11-15T02:04:44.398Z,35.40
2017-11-15T02:04:48.638Z,35.40
2017-11-15T02:04:52.922Z,34.83
2017-11-15T02:04:57.201Z,35.00
2017-11-15T02:05:01.454Z,35.00
2017-11-15T02:05:05.745Z,34.93
2017-11-15T02:05:09.991Z,35.15
2017-11-15T02:05:14.241Z,35.35
2017-11-15T02:05:18.508Z,35.80
2017-11-15T02:05:22.764Z,36.07
2017-11-15T02:05:27.035Z,36.00
2017-11-15T02:05:31.310Z,36.00
2017-11-15T02:05:35.557Z,35.77
2017-11-15T02:05:40.599Z,35.45
2017-11-15T02:05:44.852Z,34.77
2017-11-15T02:05:49.117Z,34.75
2017-11-15T02:05:53.388Z,34.75
2017-11-15T02:05:57.676Z,34.43
2017-11-15T02:06:01.958Z,34.35
2017-11-15T02:06:06.200Z,34.30
2017-11-15T02:06:10.495Z,34.20
2017-11-15T02:06:15.528Z,34.40
2017-11-15T02:06:19.801Z,34.40
2017-11-15T02:06:24.033Z,34.60
2017-11-15T02:06:28.298Z,34.63
2017-11-15T02:06:33.350Z,35.00
2017-11-15T02:06:37.602Z,35.00
2017-11-15T02:06:41.850Z,34.90
2017-11-15T02:06:46.098Z,34.80
2017-11-15T02:06:50.361Z,34.80
2017-11-15T02:06:54.642Z,35.15
2017-11-15T02:06:58.884Z,35.10
2017-11-15T02:07:03.163Z,35.43
2017-11-15T02:07:07.413Z,35.75
2017-11-15T02:07:12.435Z,35.65
2017-11-15T02:07:17.443Z,35.23
2017-11-15T02:07:22.501Z,35.17
2017-11-15T02:07:26.738Z,35.17
2017-11-15T02:07:31.007Z,34.80
2017-11-15T02:07:35.253Z,34.55
2017-11-15T02:07:39.530Z,34.25
2017-11-15T02:07:43.792Z,34.20
2017-11-15T02:07:48.047Z,34.10
2017-11-15T02:07:52.303Z,33.90
2017-11-15T02:07:56.545Z,33.80
2017-11-15T02:08:00.805Z,33.57
2017-11-15T02:08:05.062Z,33.30
2017-11-15T02:08:09.305Z,33.20
2017-11-15T02:08:13.567Z,33.45
2017-11-15T02:08:17.816Z,33.43
2017-11-15T02:08:22.089Z,33.20
2017-11-15T02:08:27.106Z,33.15
2017-11-15T02:08:31.366Z,33.30
2017-11-15T02:08:35.728Z,33.50
2017-11-15T02:08:39.968Z,33.70
2017-11-15T02:08:44.200Z,33.70
2017-11-15T02:08:49.216Z,33.65
2017-11-15T02:08:53.495Z,33.40
2017-11-15T02:08:57.760Z,33.00
2017-11-15T02:09:02.042Z,32.90
2017-11-15T02:09:06.317Z,32.90
2017-11-15T02:09:11.350Z,33.00
2017-11-15T02:09:15.601Z,33.23
2017-11-15T02:09:19.858Z,33.60
2017-11-15T02:09:24.129Z,33.45
2017-11-15T02:09:29.206Z,33.07
2017-11-15T02:09:33.478Z,33.33
2017-11-15T02:09:37.736Z,33.40
2017-11-15T02:09:42.005Z,33.50
2017-11-15T02:09:46.258Z,33.50
2017-11-15T02:09:51.295Z,33.75
2017-11-15T02:09:55.550Z,34.23
2017-11-15T02:09:59.823Z,35.00
2017-11-15T02:10:04.052Z,35.20
2017-11-15T02:10:08.337Z,35.03
2017-11-15T02:10:12.640Z,34.85
2017-11-15T02:10:16.964Z,34.30
2017-11-15T02:10:21.235Z,34.33
2017-11-15T02:10:25.476Z,34.40
2017-11-15T02:10:30.493Z,34.50
2017-11-15T02:10:35.504Z,34.10
2017-11-15T02:10:40.548Z,33.87
2017-11-15T02:10:44.806Z,33.97
2017-11-15T02:10:49.086Z,33.77
2017-11-15T02:10:53.329Z,33.50
2017-11-15T02:10:58.372Z,33.25
2017-11-15T02:11:02.610Z,32.53
2017-11-15T02:11:06.880Z,32.37
2017-11-15T02:11:11.141Z,32.10
2017-11-15T02:11:15.401Z,32.20
2017-11-15T02:11:19.662Z,32.10
2017-11-15T02:11:24.681Z,32.20
2017-11-15T02:11:29.754Z,32.50
2017-11-15T02:11:34.015Z,33.20
2017-11-15T02:11:38.260Z,33.50
2017-11-15T02:11:42.508Z,33.60
2017-11-15T02:11:46.783Z,33.60
2017-11-15T02:11:51.047Z,33.85
2017-11-15T02:11:55.298Z,34.10
2017-11-15T02:12:00.326Z,34.30
2017-11-15T02:12:04.616Z,34.72
2017-11-15T02:12:08.864Z,34.90
2017-11-15T02:12:13.114Z,34.55
2017-11-15T02:12:18.142Z,34.25
2017-11-15T02:12:22.399Z,33.77
2017-11-15T02:12:26.661Z,33.07
2017-11-15T02:12:30.903Z,32.60
2017-11-15T02:12:35.186Z,31.75
2017-11-15T02:12:39.448Z,31.60
2017-11-15T02:12:43.717Z,31.45
2017-11-15T02:12:48.740Z,31.45
2017-11-15T02:12:52.987Z,31.47
2017-11-15T02:12:57.258Z,31.45
2017-11-15T02:13:02.270Z,31.20
2017-11-15T02:13:07.320Z,31.60
2017-11-15T02:13:11.596Z,31.63
2017-11-15T02:13:16.609Z,32.00
2017-11-15T02:13:21.635Z,32.13
2017-11-15T02:13:25.910Z,32.67
2017-11-15T02:13:30.166Z,32.73
2017-11-15T02:13:34.442Z,33.10
2017-11-15T02:13:38.694Z,33.20
2017-11-15T02:13:42.961Z,33.25
2017-11-15T02:13:47.239Z,33.60
2017-11-15T02:13:51.506Z,33.30
2017-11-15T02:13:55.753Z,32.95
2017-11-15T02:14:00.053Z,33.00
2017-11-15T02:14:04.311Z,32.73
2017-11-15T02:14:08.563Z,32.80
2017-11-15T02:14:12.813Z,33.00
2017-11-15T02:14:17.839Z,33.10
2017-11-15T02:14:22.109Z,33.37
2017-11-15T02:14:26.352Z,33.30
2017-11-15T02:14:30.644Z,33.25
2017-11-15T02:14:34.884Z,33.03
2017-11-15T02:14:39.150Z,33.10
2017-11-15T02:14:44.174Z,33.05
2017-11-15T02:14:49.192Z,33.20
2017-11-15T02:14:53.464Z,33.50
2017-11-15T02:14:57.724Z,33.85
2017-11-15T02:15:01.973Z,33.80
2017-11-15T02:15:06.226Z,34.20
2017-11-15T02:15:10.517Z,34.30
2017-11-15T02:15:14.763Z,34.13
2017-11-15T02:15:19.015Z,33.80
2017-11-15T02:15:23.266Z,33.55
2017-11-15T02:15:27.509Z,33.80
2017-11-15T02:15:31.803Z,33.90
2017-11-15T02:15:36.102Z,34.00
2017-11-15T02:15:41.132Z,33.75
2017-11-15T02:15:45.403Z,33.87
2017-11-15T02:15:50.439Z,33.70
2017-11-15T02:15:55.449Z,33.63
2017-11-15T02:16:00.465Z,33.47
2017-11-15T02:16:04.733Z,33.37
2017-11-15T02:16:09.049Z,33.30
2017-11-15T02:16:14.110Z,33.55
2017-11-15T02:16:18.401Z,34.17
2017-11-15T02:16:22.660Z,34.35
2017-11-15T02:16:26.922Z,34.20
2017-11-15T02:16:31.174Z,34.65
2017-11-15T02:16:35.446Z,34.77
2017-11-15T02:16:39.718Z,34.60
2017-11-15T02:16:43.983Z,34.35
2017-11-15T02:16:48.991Z,34.27
2017-11-15T02:16:54.019Z,34.27
2017-11-15T02:16:59.053Z,34.13
2017-11-15T02:17:04.076Z,34.00
2017-11-15T02:17:08.366Z,33.87
2017-11-15T02:17:13.369Z,33.35
2017-11-15T02:17:18.411Z,32.73
2017-11-15T02:17:22.676Z,32.27
2017-11-15T02:17:26.917Z,32.20
2017-11-15T02:17:31.222Z,31.43
2017-11-15T02:17:35.474Z,31.30
2017-11-15T02:17:39.735Z,31.45
2017-11-15T02:17:43.991Z,31.40
2017-11-15T02:17:48.252Z,30.90
2017-11-15T02:17:52.517Z,30.75
2017-11-15T02:17:57.527Z,30.50
2017-11-15T02:18:01.795Z,30.27
2017-11-15T02:18:06.154Z,29.93
2017-11-15T02:18:10.398Z,30.00
2017-11-15T02:18:14.653Z,30.05
2017-11-15T02:18:18.931Z,30.53
2017-11-15T02:18:23.951Z,30.75
2017-11-15T02:18:28.218Z,30.60
2017-11-15T02:18:32.491Z,30.60
2017-11-15T02:18:36.737Z,30.47
2017-11-15T02:18:41.022Z,30.60
2017-11-15T02:18:45.290Z,31.25
2017-11-15T02:18:49.528Z,31.35
2017-11-15T02:18:53.797Z,31.63
2017-11-15T02:18:58.064Z,31.80